Latest Weather Observations for Kingscote

IDS60801

Issued at 3:51 pm CST Tuesday 20 April 2021 (issued every 10 minutes, with the page automatically refreshed every 10 minutes)

About weather observations | Map of weather stations | Latest weather observations for SA | Other Formats
Station Details ID: 022841 Name: KINGSCOTE AERO Lat: -35.71 Lon: 137.52 Height: 6.23 m
Data from the previous 72 hours. | See also: Recent months at Kingscote
Date/Time
CST
Temp
°C
App
Temp
°C
Dew
Point
°C
Rel
Hum
%
Delta-T
°C
Wind Press
QNH
hPa
Press
MSL
hPa
Rain since
9am
mm
Dir  Spd
km/h
Gust
km/h
Spd
kts
Gust
kts
20/03:30pm 15.4 8.9 4.5 48 5.1 S 28 37 15 20 1018.0 1018.0 0.2
20/03:00pm 16.9 10.9 5.5 47 5.5 S 26 33 14 18 1017.7 1017.7 0.2
20/02:30pm 15.6 8.9 5.8 52 4.7 S 30 44 16 24 1017.4 1017.4 0.2
20/02:00pm 16.9 10.6 3.9 42 6.1 S 26 37 14 20 1017.3 1017.3 0.2
20/01:30pm 16.9 10.6 3.9 42 6.0 S 26 41 14 22 1017.2 1017.2 0.2
20/01:00pm 16.6 10.3 5.6 48 5.3 S 28 39 15 21 1017.5 1017.5 0.2
20/12:30pm 16.1 9.9 6.0 51 4.9 S 28 39 15 21 1017.6 1017.6 0.0
20/12:00pm 17.0 10.0 6.2 49 5.3 SSW 32 44 17 24 1017.7 1017.7 0.0
20/11:30am 16.2 9.4 7.7 57 4.2 S 33 44 18 24 1017.7 1017.7 0.0
20/11:00am 15.8 9.2 7.8 59 4.0 S 32 41 17 22 1017.3 1017.3 0.0
20/10:30am 16.0 10.5 9.0 63 3.6 S 28 37 15 20 1016.9 1016.9 0.0
20/10:00am 15.0 11.3 10.0 72 2.6 S 20 32 11 17 1016.7 1016.7 0.0
20/09:30am 13.2 9.3 10.9 86 1.2 S 22 37 12 20 1016.6 1016.6 0.0
20/09:26am 13.3 8.0 11.4 88 1.0 S 30 48 16 26 1016.6 1016.6 0.0
20/09:18am 13.4 8.7 10.8 84 1.4 SSW 26 48 14 26 1016.6 1016.6 0.0
20/09:00am 13.5 10.6 11.0 85 1.3 S 17 24 9 13 1016.1 1016.1 4.2
20/08:30am 12.9 10.1 11.5 91 0.7 SSW 17 22 9 12 1015.6 1015.6 4.2
20/08:00am 12.6 7.7 11.3 92 0.7 S 28 41 15 22 1015.3 1015.3 4.2
20/07:30am 13.0 9.1 12.1 94 0.5 SSW 24 30 13 16 1014.7 1014.7 4.2
20/07:18am 13.0 9.0 11.9 93 0.6 SSW 24 33 13 18 1014.2 1014.2 4.2
20/07:00am 13.1 9.2 12.0 93 0.6 SSW 24 32 13 17 1013.7 1013.7 4.2
20/06:30am 13.7 8.9 12.8 94 0.5 SSW 30 41 16 22 1013.2 1013.2 4.2
20/06:28am 13.7 8.4 12.6 93 0.6 SSW 32 41 17 22 1013.1 1013.1 4.2
20/06:13am 14.4 10.1 13.3 93 0.6 SSW 28 41 15 22 1012.5 1012.5 4.0
20/06:09am 14.7 11.6 13.4 92 0.7 SSW 22 35 12 19 1012.4 1012.4 3.8
20/06:00am 15.1 12.5 13.8 92 0.7 WSW 20 30 11 16 1012.1 1012.1 3.4
20/05:48am 15.6 13.3 14.0 90 0.9 WSW 19 35 10 19 1012.1 1012.1 1.4
20/05:30am 16.3 14.3 12.8 80 1.9 WNW 15 20 8 11 1011.8 1011.8 0.0
20/05:00am 15.8 13.3 12.4 80 1.9 NW 17 24 9 13 1011.7 1011.7 0.0
20/04:30am 15.5 13.3 12.1 80 1.9 NW 15 22 8 12 1011.8 1011.8 0.0
20/04:00am 15.0 12.2 11.4 79 1.9 NW 17 24 9 13 1011.8 1011.8 0.0
20/03:30am 14.6 11.8 11.2 80 1.8 WNW 17 20 9 11 1012.0 1012.0 0.0
20/03:00am 15.2 12.1 11.6 79 1.9 NW 19 22 10 12 1012.1 1012.1 0.0
20/02:30am 15.4 11.7 11.6 78 2.0 NW 22 30 12 16 1012.3 1012.3 0.0
20/02:00am 15.0 12.3 11.6 80 1.8 NW 17 22 9 12 1012.8 1012.8 0.0
20/01:30am 15.3 12.8 12.2 82 1.7 NNW 17 22 9 12 1012.9 1012.9 0.0
20/01:00am 14.9 12.0 10.9 77 2.1 NW 17 22 9 12 1013.0 1013.0 0.0
20/12:30am 14.0 11.5 9.6 75 2.3 NNW 13 15 7 8 1013.2 1013.2 0.0
20/12:00am 12.3 10.1 9.5 83 1.4 NNW 11 13 6 7 1013.5 1013.5 0.0
 
Date/Time
CST
Temp
°C
App
Temp
°C
Dew
Point
°C
Rel
Hum
%
Delta-T
°C
Wind Press
QNH
hPa
Press
MSL
hPa
Rain since
9am
mm
Dir  Spd
km/h
Gust
km/h
Spd
kts
Gust
kts
19/11:30pm 10.9 9.3 8.0 82 1.4 NNW 6 7 3 4 1013.8 1013.8 0.0
19/11:00pm 12.6 10.7 9.2 80 1.7 NNW 9 11 5 6 1013.9 1013.9 0.0
19/10:30pm 14.3 12.3 10.1 76 2.2 N 11 13 6 7 1014.0 1014.0 0.0
19/10:00pm 14.5 12.4 9.9 74 2.4 N 11 15 6 8 1014.1 1014.1 0.0
19/09:30pm 14.9 13.7 10.3 74 2.4 NW 7 9 4 5 1014.3 1014.3 0.0
19/09:00pm 15.5 12.7 10.1 70 2.8 W 15 20 8 11 1014.3 1014.3 0.0
19/08:30pm 16.9 13.6 11.0 68 3.2 WNW 19 22 10 12 1014.6 1014.6 0.0
19/08:00pm 16.8 14.0 11.5 71 2.9 WNW 17 22 9 12 1014.7 1014.7 0.0
19/07:30pm 16.8 14.6 12.1 74 2.6 NW 15 20 8 11 1014.8 1014.8 0.0
19/07:00pm 17.0 14.4 12.1 73 2.7 NW 17 26 9 14 1014.9 1014.9 0.0
19/06:30pm 16.7 14.3 11.4 71 2.9 NW 15 24 8 13 1014.9 1014.9 0.0
19/06:00pm 16.8 13.2 10.6 67 3.3 NW 20 26 11 14 1014.8 1014.8 0.0
19/05:30pm 17.6 13.7 9.5 59 4.2 NW 20 28 11 15 1014.5 1014.5 0.0
19/05:00pm 18.5 13.8 9.3 55 4.8 NW 24 32 13 17 1014.6 1014.6 0.0
19/04:30pm 18.5 13.2 9.8 57 4.6 NW 28 35 15 19 1014.6 1014.6 0.0
19/04:00pm 19.0 13.7 10.0 56 4.8 NW 28 37 15 20 1014.7 1014.7 0.0
19/03:30pm 18.8 13.5 9.8 56 4.8 WNW 28 39 15 21 1014.8 1014.8 0.0
19/03:00pm 19.1 13.3 9.3 53 5.2 WNW 30 43 16 23 1014.7 1014.7 0.0
19/02:30pm 19.4 14.2 10.1 55 5.0 NW 28 43 15 23 1014.7 1014.7 0.0
19/02:00pm 18.9 12.6 9.7 55 4.9 WNW 33 44 18 24 1015.2 1015.2 0.0
19/01:30pm 19.9 13.1 9.2 50 5.6 NW 35 50 19 27 1015.5 1015.5 0.0
19/01:00pm 21.2 14.8 10.7 51 5.7 NW 35 46 19 25 1016.0 1016.0 0.0
19/12:30pm 20.4 13.7 9.6 50 5.8 NW 35 48 19 26 1016.4 1016.4 0.0
19/12:00pm 20.2 15.9 10.6 54 5.2 WNW 24 35 13 19 1016.8 1016.8 0.0
19/11:30am 18.8 14.1 11.9 64 3.8 WNW 28 39 15 21 1017.4 1017.4 0.0
19/11:00am 19.3 13.0 8.9 51 5.4 NW 32 39 17 21 1017.5 1017.5 0.0
19/10:30am 18.6 13.6 10.9 61 4.2 NW 28 41 15 22 1017.8 1017.8 0.0
19/10:00am 18.7 14.1 11.0 61 4.2 NW 26 39 14 21 1017.9 1017.9 0.0
19/09:30am 17.7 14.9 11.3 66 3.5 NW 17 24 9 13 1018.4 1018.4 0.0
19/09:00am 15.9 15.2 13.2 84 1.5 WNW 9 15 5 8 1018.6 1018.6 0.0
19/08:30am 16.7 15.6 12.0 74 2.6 NW 9 13 5 7 1018.8 1018.8 0.0
19/08:00am 15.5 14.7 11.7 78 2.1 NW 7 9 4 5 1018.7 1018.7 0.0
19/07:30am 14.3 13.3 11.1 81 1.7 NW 7 9 4 5 1018.4 1018.4 0.0
19/07:00am 13.9 12.6 11.1 83 1.5 NW 9 9 5 5 1018.5 1018.5 0.0
19/06:30am 13.8 12.4 11.0 83 1.5 NW 9 11 5 6 1018.4 1018.4 0.0
19/06:00am 12.7 11.5 10.4 86 1.2 W 7 7 4 4 1018.4 1018.4 0.0
19/05:30am 12.2 10.1 9.8 85 1.2 WSW 11 13 6 7 1018.4 1018.4 0.0
19/05:00am 12.5 11.2 10.0 85 1.3 WNW 7 9 4 5 1018.4 1018.4 0.0
19/04:30am 13.0 13.2 10.4 84 1.3 CALM 0 0 0 0 1018.6 1018.6 0.0
19/04:00am 13.2 13.4 10.7 85 1.3 CALM 0 0 0 0 1018.9 1018.9 0.0
19/03:30am 13.0 13.2 10.5 85 1.3 CALM 0 0 0 0 1019.1 1019.1 0.0
19/03:00am 13.0 13.2 10.4 84 1.3 CALM 0 0 0 0 1019.3 1019.3 0.0
19/02:30am 13.4 13.7 10.9 85 1.3 CALM 0 0 0 0 1019.6 1019.6 0.0
19/02:00am 13.3 13.5 10.5 83 1.5 CALM 0 0 0 0 1020.0 1020.0 0.0
19/01:30am 13.9 13.0 10.7 81 1.7 N 6 7 3 4 1020.4 1020.4 0.0
19/01:00am 14.1 13.3 10.9 81 1.7 N 6 6 3 3 1020.6 1020.6 0.0
19/12:30am 14.1 13.0 10.7 80 1.8 N 7 9 4 5 1020.8 1020.8 0.0
19/12:00am 13.7 12.6 10.5 81 1.7 NW 7 9 4 5 1021.2 1021.2 0.0
 
Date/Time
CST
Temp
°C
App
Temp
°C
Dew
Point
°C
Rel
Hum
%
Delta-T
°C
Wind Press
QNH
hPa
Press
MSL
hPa
Rain since
9am
mm
Dir  Spd
km/h
Gust
km/h
Spd
kts
Gust
kts
18/11:30pm 14.2 13.1 10.6 79 1.9 NNW 7 7 4 4 1021.5 1021.5 0.0
18/11:00pm 14.2 13.1 10.6 79 1.9 W 7 9 4 5 1021.9 1021.9 0.0
18/10:30pm 14.5 12.7 10.7 78 2.0 WSW 11 15 6 8 1022.2 1022.2 0.0
18/10:00pm 13.9 12.6 10.1 78 2.0 SW 7 7 4 4 1022.4 1022.4 0.0
18/09:30pm 14.0 12.4 10.2 78 2.0 SW 9 13 5 7 1022.6 1022.6 0.0
18/09:00pm 14.7 13.6 10.7 77 2.1 NW 7 9 4 5 1022.4 1022.4 0.0
18/08:30pm 14.7 12.4 10.5 76 2.2 NW 13 13 7 7 1022.4 1022.4 0.0
18/08:00pm 15.0 13.4 10.2 73 2.5 NW 9 11 5 6 1022.5 1022.5 0.0
18/07:30pm 14.9 12.9 10.1 73 2.5 NW 11 13 6 7 1022.7 1022.7 0.0
18/07:00pm 15.4 13.4 10.0 70 2.8 WNW 11 13 6 7 1022.9 1022.9 0.0
18/06:30pm 15.9 13.5 10.2 69 3.0 W 13 19 7 10 1022.8 1022.8 0.0
18/06:00pm 16.0 12.0 10.5 70 2.9 WSW 22 30 12 16 1022.8 1022.8 0.0
18/05:30pm 17.5 14.3 10.1 62 3.9 W 17 30 9 16 1022.7 1022.7 0.0
18/05:00pm 18.1 15.2 9.5 57 4.5 WSW 15 19 8 10 1022.6 1022.6 0.0
18/04:30pm 17.8 14.0 9.2 57 4.5 W 19 26 10 14 1022.6 1022.6 0.0
18/04:00pm 18.3 13.7 9.6 57 4.6 W 24 30 13 16 1022.8 1022.8 0.0
18/03:30pm 18.8 15.0 9.0 53 5.1 W 19 28 10 15 1022.8 1022.8 0.0
18/03:00pm 19.2 15.3 8.5 50 5.5 WNW 19 28 10 15 1022.8 1022.8 0.0
18/02:30pm 19.2 14.2 8.2 49 5.7 WNW 24 32 13 17 1022.8 1022.8 0.0
18/02:00pm 19.8 14.8 8.2 47 6.0 WNW 24 30 13 16 1022.9 1022.9 0.0
18/01:30pm 20.2 16.0 7.6 44 6.4 W 19 26 10 14 1023.0 1023.0 0.0
18/01:00pm 21.2 16.9 7.8 42 6.9 NW 20 28 11 15 1023.5 1023.5 0.0
18/12:30pm 20.3 17.1 8.3 46 6.2 W 15 20 8 11 1023.9 1023.9 0.0
18/12:00pm 20.0 17.3 5.6 39 7.1 NW 9 15 5 8 1024.4 1024.4 0.0
18/11:30am 19.0 15.7 6.2 43 6.3 WSW 13 17 7 9 1024.8 1024.8 0.0
18/11:00am 19.7 17.0 7.4 45 6.3 WSW 11 17 6 9 1025.0 1025.0 0.0
18/10:30am 20.0 17.8 7.7 45 6.3 W 9 20 5 11 1025.3 1025.3 0.0
18/10:00am 20.5 16.9 8.2 45 6.4 WNW 17 24 9 13 1025.7 1025.7 0.0
18/09:30am 19.2 16.2 7.9 48 5.8 WSW 13 20 7 11 1026.0 1026.0 0.0
18/09:00am 17.5 15.7 10.9 65 3.5 W 11 15 6 8 1026.1 1026.1 0.0
18/08:30am 13.9 13.3 10.3 79 1.9 NNW 4 7 2 4 1026.2 1026.2 0.0
18/08:00am 12.8 12.6 10.5 86 1.2 WNW 2 7 1 4 1026.2 1026.2 0.0
18/07:30am 11.4 10.3 10.0 91 0.7 WNW 6 7 3 4 1026.0 1026.0 0.0
18/07:00am 10.7 10.5 9.1 90 0.8 CALM 0 4 0 2 1025.7 1025.7 0.0
18/06:30am 9.9 9.5 8.3 90 0.8 CALM 0 0 0 0 1025.7 1025.7 0.0
18/06:00am 10.0 9.6 8.4 90 0.8 CALM 0 0 0 0 1025.6 1025.6 0.0
18/05:30am 9.8 9.4 8.1 89 0.8 CALM 0 0 0 0 1025.6 1025.6 0.0
18/05:00am 10.2 9.9 8.6 90 0.8 CALM 0 0 0 0 1025.6 1025.6 0.0
18/04:30am 10.3 10.0 8.6 89 0.8 CALM 0 2 0 1 1025.7 1025.7 0.0
18/04:00am 10.1 9.8 8.7 91 0.7 CALM 0 0 0 0 1025.7 1025.7 0.0
18/03:30am 9.6 9.2 8.2 91 0.7 CALM 0 0 0 0 1025.8 1025.8 0.0
18/03:00am 9.1 8.6 8.0 93 0.5 CALM 0 0 0 0 1026.0 1026.0 0.0
18/02:30am 8.7 8.2 7.8 94 0.4 CALM 0 0 0 0 1026.2 1026.2 0.0
18/02:00am 8.1 6.3 7.2 94 0.4 W 6 7 3 4 1026.5 1026.5 0.0
18/01:30am 7.3 5.1 6.2 93 0.5 W 7 9 4 5 1026.5 1026.5 0.0
18/01:00am 7.0 6.0 5.6 91 0.6 CALM 0 0 0 0 1026.6 1026.6 0.0
18/12:30am 7.1 6.1 5.7 91 0.6 CALM 0 0 0 0 1026.7 1026.7 0.0
18/12:00am 8.0 7.2 6.5 90 0.7 CALM 0 0 0 0 1026.8 1026.8 0.0
 
Date/Time
CST
Temp
°C
App
Temp
°C
Dew
Point
°C
Rel
Hum
%
Delta-T
°C
Wind Press
QNH
hPa
Press
MSL
hPa
Rain since
9am
mm
Dir  Spd
km/h
Gust
km/h
Spd
kts
Gust
kts
17/11:30pm 9.1 8.5 7.5 90 0.8 CALM 0 0 0 0 1027.0 1027.0 0.0
17/11:00pm 9.1 8.3 6.7 85 1.1 CALM 0 0 0 0 1027.3 1027.3 0.0
17/10:30pm 9.4 8.0 7.2 86 1.0 NW 4 6 2 3 1027.5 1027.5 0.0
17/10:00pm 9.5 8.9 7.3 86 1.0 CALM 0 0 0 0 1027.6 1027.6 0.0
17/09:30pm 10.7 10.3 8.3 85 1.2 CALM 0 2 0 1 1027.5 1027.5 0.0
17/09:00pm 11.3 9.8 8.5 83 1.4 NW 6 7 3 4 1027.5 1027.5 0.0
17/08:30pm 11.9 11.7 9.1 83 1.4 CALM 0 0 0 0 1027.6 1027.6 0.0
17/08:00pm 12.7 11.1 8.6 76 2.0 WSW 7 9 4 5 1027.7 1027.7 0.0
17/07:30pm 14.0 12.6 9.4 74 2.3 W 7 9 4 5 1027.6 1027.6 0.0
17/07:00pm 15.3 13.4 9.2 67 3.1 SW 9 9 5 5 1027.5 1027.5 0.0
17/06:30pm 15.5 14.8 11.3 76 2.2 NW 6 7 3 4 1027.3 1027.3 0.0
17/06:00pm 16.9 13.9 9.3 61 3.9 SW 15 19 8 10 1027.1 1027.1 0.0
17/05:30pm 16.5 15.3 11.6 73 2.6 WNW 9 11 5 6 1026.9 1026.9 0.0
17/05:00pm 16.8 15.2 11.5 71 2.9 W 11 15 6 8 1026.9 1026.9 0.0
17/04:30pm 17.0 15.4 11.5 70 3.0 NW 11 15 6 8 1026.8 1026.8 0.0
17/04:00pm 17.5 14.6 11.1 66 3.5 SW 17 26 9 14 1026.8 1026.8 0.0

Other formats

Comma delimited format used in spreadsheet applications
http://www.bom.gov.au/fwo/IDS60801/IDS60801.95807.axf

JavaScript Object Notation format (JSON) in row-major order
http://www.bom.gov.au/fwo/IDS60801/IDS60801.95807.json

Data quality

Most of these data are generated automatically and are frequently updated. Quality checks on data are not normally performed. It is possible for incorrect values to appear. Refer to information at About Latest Weather Observations and please check the disclaimer before using these data.